Aérodrome :
LOGIN :

S'inscrire | Disclaimer

   EN    FR    IT 

 










Légende :    VFR   VFR Marginal   IFR   IFR Intensif   IFR Très Intensif
Visi : 
Plafond : 
>= 8 km
>= 3000ft
5 à 8 km
1000 à 3000 ft
1500m à 5 km
500 à 1000 ft
800 à 1500m
200 à 500 ft
< 800m
< 200 ft
Symboles :   Orages  Brouillard  Fortes neiges  Fortes précipitations  Vent > 20 kt
SIGMETs :   Divers  Orages  Givrage  Turbulence  Onde Orograph.  Cendres Volcan.







- Altitude de l'aérodrome : 17 ft
- Code IATA : CPH


EKCH - København - Kastrup (Copenhagen)

DERNIER METAR :
  • 190350Z AUTO 22005KT 5000NDV BKN035/// BKN057/// 05/03 Q1008 TEMPO 4000 BR

METARs EXPIRÉS :
  • 190320Z AUTO 20003KT 4700NDV BR SCT030/// BKN054/// BKN200/// 04/03 Q1008 TEMPO 5000 NSW
  • 190250Z AUTO 20005KT 4500NDV BR BKN047/// BKN180/// 03/02 Q1008 TEMPO 5000 NSW
  • 190220Z AUTO 20004KT 5000NDV BKN032/// 03/02 Q1009 TEMPO 5000 NSW
  • 190150Z AUTO 22005KT 4900NDV BR SCT029/// BKN043/// 02/01 Q1010 TEMPO 5000 NSW
  • 190120Z AUTO 22006KT 6000NDV FEW041/// 03/02 Q1010 TEMPO 4000 BR

TAF TAF EKCH
Valide du 19 à 00h jusqu'au 20 à 00h UTC


182307Z 1900/1924 22008KT 6000 BKN030
TEMPO 1900/1905 3000 BR
BECMG 1905/1907 4000 RADZ BR BKN008
BECMG 1907/1909 9999 NSW SCT020
TEMPO 1909/1916 26015G28KT SHRA BKN010 SCT020CB
TEMPO 1916/1924 27015G25KT -SHRA BKN012 SCT020TCU
Pas de NOTAMs connus pour ce terrain.



MET'MAP, la Météo Aéronautique d'un coup d'oeil ! - Copyright ORBIFLY Décembre 2007 - Disclaimer

ORBIFLY MET'MAP TEAM :

Programmation & Développement : Alexandra Zaïnal
Conception & Développement : Baudouin d'Aumeries
Co-Programmation & Développement : Marc-Olivier Méhu
Soutien technique & logistique : Manuel Goepfert

Contact : metmap@orbifly.com




SOURCES & CREDITS :

   NOAA